Time;durP1;ratioP1;P1;durP2;ratioP2;P2;SDS_P1;SDS_P2;PMS_P1;PMS_P2;Temp;Humidity;BMP_temperature;BMP_pressure;BME280_temperature;BME280_humidity;BME280_pressure;Samples;Min_cycle;Max_cycle;Signal;HPM_P1;HPM_P2
2021/12/20 00:02:10;;;;;;;16.53;4.20;;;;;;;1.27;88.72;102651.03;5051823;28;20192;-75
2021/12/20 00:04:36;;;;;;;17.30;4.43;;;;;;;1.27;88.84;102658.59;5069544;28;20696;-75
2021/12/20 00:07:01;;;;;;;19.03;4.20;;;;;;;1.25;88.77;102670.22;5069433;28;20625;-75
2021/12/20 00:09:26;;;;;;;15.87;3.77;;;;;;;1.20;88.12;102665.50;5043857;28;20201;-76
2021/12/20 00:11:52;;;;;;;19.43;4.23;;;;;;;1.10;88.53;102662.97;5030993;28;20213;-76
2021/12/20 00:14:17;;;;;;;21.30;4.60;;;;;;;1.08;88.15;102664.44;5048597;28;20698;-76
2021/12/20 00:16:42;;;;;;;17.47;4.17;;;;;;;1.06;87.94;102674.41;5011662;28;20773;-75
2021/12/20 00:19:10;;;;;;;11.67;3.53;;;;;;;1.02;87.41;102674.91;5029360;28;20197;-75
2021/12/20 00:21:37;;;;;;;12.17;3.57;;;;;;;0.97;87.21;102676.16;5029339;28;20182;-75
2021/12/20 00:24:03;;;;;;;12.20;3.70;;;;;;;0.98;88.28;102667.84;5011767;28;20214;-75
2021/12/20 00:26:28;;;;;;;11.73;4.07;;;;;;;0.98;88.17;102667.84;5029411;28;20325;-76
2021/12/20 00:28:53;;;;;;;12.33;3.57;;;;;;;0.93;87.40;102669.06;5011595;28;20273;-76
2021/12/20 00:31:19;;;;;;;14.77;4.20;;;;;;;0.87;87.94;102672.69;5011652;28;20202;-75
2021/12/20 00:33:44;;;;;;;16.33;3.50;;;;;;;0.94;87.51;102665.81;5011519;28;20201;-75
2021/12/20 00:36:09;;;;;;;17.70;4.10;;;;;;;0.98;87.90;102669.47;5028982;28;20189;-75
2021/12/20 00:41:21;;;;;;;12.63;4.87;;;;;;;0.87;87.02;102677.75;5011722;28;20198;-74
2021/12/20 00:43:47;;;;;;;11.07;3.43;;;;;;;0.86;86.75;102676.84;5011296;28;20605;-74
2021/12/20 00:46:12;;;;;;;13.17;3.90;;;;;;;0.78;87.21;102682.84;5020907;28;20197;-75
2021/12/20 00:48:37;;;;;;;9.53;3.67;;;;;;;0.81;87.12;102685.66;5048777;28;20182;-75
2021/12/20 00:51:03;;;;;;;19.17;4.03;;;;;;;0.80;87.11;102683.88;5031674;28;20190;-76
2021/12/20 00:53:28;;;;;;;9.47;3.47;;;;;;;0.87;87.39;102672.69;5031469;28;20213;-74
2021/12/20 00:55:53;;;;;;;11.20;2.90;;;;;;;0.92;86.80;102679.88;5031288;28;20255;-74
2021/12/20 00:58:19;;;;;;;8.07;3.00;;;;;;;0.91;86.29;102669.69;5048839;28;20216;-75
2021/12/20 01:00:47;;;;;;;12.87;3.07;;;;;;;0.92;86.28;102673.97;5049184;28;20189;-74
2021/12/20 01:03:14;;;;;;;12.03;3.20;;;;;;;0.95;85.46;102672.59;5048935;28;20190;-76
2021/12/20 01:05:41;;;;;;;9.83;3.10;;;;;;;0.94;86.00;102685.97;5048902;28;20212;-75
2021/12/20 01:08:08;;;;;;;15.50;3.00;;;;;;;0.93;85.19;102683.31;5014473;28;20593;-75
2021/12/20 01:10:36;;;;;;;12.53;3.30;;;;;;;0.92;85.49;102681.53;5033039;28;20209;-75
2021/12/20 01:13:03;;;;;;;16.17;3.40;;;;;;;0.94;84.92;102685.97;5031306;28;20193;-74
2021/12/20 01:15:33;;;;;;;12.03;3.00;;;;;;;0.98;85.24;102679.53;5020382;28;20209;-74
2021/12/20 01:17:59;;;;;;;10.97;3.03;;;;;;;0.98;84.63;102687.09;5028594;28;20206;-75
2021/12/20 01:20:25;;;;;;;10.23;2.67;;;;;;;0.95;84.46;102681.78;5028785;28;20175;-78
2021/12/20 01:22:51;;;;;;;7.70;2.33;;;;;;;0.95;84.58;102674.22;5013960;28;20196;-75
2021/12/20 01:25:17;;;;;;;15.23;2.60;;;;;;;0.98;84.08;102687.09;4998505;28;20776;-75
2021/12/20 01:27:43;;;;;;;13.00;2.63;;;;;;;0.96;85.10;102696.19;5032778;28;20240;-74
2021/12/20 01:30:11;;;;;;;7.67;2.57;;;;;;;0.93;84.40;102691.78;5014720;28;20193;-74
2021/12/20 01:32:37;;;;;;;10.93;3.73;;;;;;;0.93;84.80;102695.91;5032468;28;20191;-74
2021/12/20 01:35:03;;;;;;;9.67;3.77;;;;;;;0.89;84.92;102692.25;5014843;28;20213;-75
2021/12/20 01:37:28;;;;;;;8.40;2.37;;;;;;;0.85;84.73;102695.25;4998298;28;20209;-74
2021/12/20 01:39:58;;;;;;;9.17;2.73;;;;;;;0.83;84.88;102683.25;5032341;28;20186;-75
2021/12/20 01:42:24;;;;;;;12.80;3.40;;;;;;;0.84;85.18;102674.94;5032421;28;20206;-75
2021/12/20 01:44:50;;;;;;;9.97;2.70;;;;;;;0.85;85.19;102682.66;5032236;28;20202;-75
2021/12/20 01:47:16;;;;;;;12.60;3.40;;;;;;;0.84;85.21;102669.91;5032300;28;20555;-75
2021/12/20 01:49:55;;;;;;;8.87;2.90;;;;;;;0.80;84.94;102676.31;5034086;28;20649;-77
2021/12/20 01:52:24;;;;;;;7.67;2.90;;;;;;;0.77;84.62;102675.19;5017692;28;20288;-75
2021/12/20 01:54:49;;;;;;;8.70;2.27;;;;;;;0.74;85.12;102684.97;5051924;28;20209;-75
2021/12/20 01:57:15;;;;;;;8.70;2.47;;;;;;;0.68;84.85;102694.53;5032526;28;20911;-76
2021/12/20 01:59:42;;;;;;;10.37;2.60;;;;;;;0.64;84.49;102692.50;5051951;28;20228;-75
2021/12/20 02:02:08;;;;;;;9.40;2.33;;;;;;;0.59;85.10;102689.56;5022222;28;20217;-75
2021/12/20 02:04:43;;;;;;;9.80;3.30;;;;;;;0.62;84.95;102682.28;5047035;28;20680;-75
2021/12/20 02:07:19;;;;;;;9.97;2.80;;;;;;;0.65;85.05;102675.00;5014586;28;20194;-75
2021/12/20 02:09:44;;;;;;;12.53;2.90;;;;;;;0.66;84.72;102673.34;5033390;28;20201;-73
2021/12/20 02:12:10;;;;;;;14.80;3.23;;;;;;;0.66;85.62;102683.41;5051407;28;20200;-76
2021/12/20 02:14:35;;;;;;;7.87;2.60;;;;;;;0.62;85.43;102672.19;5051372;28;20248;-77
2021/12/20 02:17:01;;;;;;;12.33;2.80;;;;;;;0.60;84.87;102665.25;5050960;28;20308;-76
2021/12/20 02:19:27;;;;;;;8.53;2.73;;;;;;;0.57;84.50;102675.03;5053122;22;20222;-78
2021/12/20 02:21:53;;;;;;;9.70;2.60;;;;;;;0.57;85.26;102677.56;5031485;28;20207;-78
2021/12/20 02:24:18;;;;;;;9.10;2.57;;;;;;;0.53;84.89;102686.50;5031642;28;20244;-76
2021/12/20 02:26:44;;;;;;;8.90;2.80;;;;;;;0.46;84.04;102683.31;5031861;28;20190;-77
2021/12/20 02:29:10;;;;;;;7.67;2.33;;;;;;;0.49;84.74;102684.44;5031881;28;20214;-77
2021/12/20 02:39:31;;;;;;;10.50;2.70;;;;;;;0.57;84.90;102670.00;5031448;28;20206;-78
2021/12/20 02:41:56;;;;;;;8.17;2.23;;;;;;;0.56;84.89;102668.25;5031478;28;20678;-78
2021/12/20 02:44:24;;;;;;;12.27;2.87;;;;;;;0.55;84.89;102687.50;5031621;28;20544;-77
2021/12/20 02:47:04;;;;;;;10.57;2.43;;;;;;;0.52;84.48;102690.63;5031442;28;20186;-78
2021/12/20 02:49:29;;;;;;;8.93;2.10;;;;;;;0.45;84.64;102692.47;5045936;28;20214;-75
2021/12/20 02:52:05;;;;;;;10.83;2.30;;;;;;;0.43;84.67;102690.59;5030927;28;20281;-75
2021/12/20 02:54:30;;;;;;;7.50;2.27;;;;;;;0.41;84.89;102680.34;5031157;28;20197;-75
2021/12/20 02:56:56;;;;;;;8.53;2.40;;;;;;;0.38;84.50;102681.72;5031544;28;20260;-78
2021/12/20 02:59:22;;;;;;;18.03;3.20;;;;;;;0.37;84.24;102679.97;5030190;28;20202;-77
2021/12/20 03:01:52;;;;;;;11.93;2.93;;;;;;;0.37;85.04;102678.34;5031487;28;20186;-75
2021/12/20 03:04:18;;;;;;;9.73;2.43;;;;;;;0.39;84.58;102686.91;5031173;28;20183;-77
2021/12/20 03:06:51;;;;;;;9.07;2.83;;;;;;;0.36;84.38;102688.28;5031161;28;20197;-77
2021/12/20 03:09:21;;;;;;;9.33;2.30;;;;;;;0.27;84.79;102688.31;5030573;28;20214;-77
2021/12/20 03:11:55;;;;;;;10.77;2.37;;;;;;;0.22;84.04;102690.44;5031398;28;20241;-77
2021/12/20 03:14:27;;;;;;;11.90;2.47;;;;;;;0.18;83.97;102695.06;5030152;28;20166;-77
2021/12/20 03:16:54;;;;;;;6.97;2.00;;;;;;;0.16;84.55;102701.59;5023939;28;20206;-76
2021/12/20 03:19:19;;;;;;;7.57;2.30;;;;;;;0.17;85.29;102690.78;5030853;28;20300;-77
2021/12/20 03:21:44;;;;;;;13.30;2.23;;;;;;;0.20;84.86;102686.88;5030821;28;20320;-77
2021/12/20 03:24:10;;;;;;;8.60;2.63;;;;;;;0.23;84.58;102678.72;5030880;28;20277;-77
2021/12/20 03:26:36;;;;;;;6.93;2.23;;;;;;;0.24;84.75;102678.00;5030898;28;20274;-78
2021/12/20 03:29:02;;;;;;;7.63;2.10;;;;;;;0.23;84.26;102686.28;5028833;28;20190;-77
2021/12/20 03:31:28;;;;;;;9.33;2.30;;;;;;;0.17;84.47;102688.25;5030305;28;20320;-77
2021/12/20 03:33:53;;;;;;;5.47;1.90;;;;;;;0.10;84.42;102686.81;5030771;28;20312;-77
2021/12/20 03:36:19;;;;;;;4.63;1.97;;;;;;;0.08;84.73;102688.31;5028807;28;20225;-76
2021/12/20 03:38:44;;;;;;;9.47;2.30;;;;;;;0.09;84.97;102685.06;5030525;28;20192;-77
2021/12/20 03:41:10;;;;;;;8.67;2.13;;;;;;;0.14;84.29;102681.31;5029051;28;20315;-76
2021/12/20 03:43:35;;;;;;;8.60;2.53;;;;;;;0.15;84.98;102678.03;5030089;28;20205;-76
2021/12/20 03:46:02;;;;;;;7.17;2.00;;;;;;;0.17;84.04;102675.66;5028822;28;20198;-76
2021/12/20 03:48:28;;;;;;;7.53;2.40;;;;;;;0.15;84.02;102684.72;5030012;28;20194;-76
2021/12/20 03:51:00;;;;;;;9.20;2.30;;;;;;;0.12;84.09;102689.47;5030064;28;20580;-76
2021/12/20 03:53:25;;;;;;;7.50;2.40;;;;;;;0.09;84.07;102692.59;5029856;28;20212;-76
2021/12/20 03:55:51;;;;;;;7.67;2.17;;;;;;;0.06;84.17;102692.31;5029503;28;20194;-76
2021/12/20 03:58:16;;;;;;;4.60;2.23;;;;;;;0.04;84.08;102688.78;5029675;28;20256;-77
2021/12/20 04:00:42;;;;;;;10.23;2.40;;;;;;;0.05;84.68;102684.66;5028763;28;20221;-76
2021/12/20 04:03:12;;;;;;;7.20;2.23;;;;;;;0.10;84.10;102685.94;5029611;28;20202;-76
2021/12/20 04:05:37;;;;;;;7.17;2.00;;;;;;;0.10;84.50;102694.38;5030050;28;20186;-76
2021/12/20 04:08:03;;;;;;;6.57;2.10;;;;;;;0.06;84.52;102684.75;5029493;28;20189;-76
2021/12/20 04:10:28;;;;;;;6.83;2.17;;;;;;;0.06;85.08;102686.41;5045052;28;20698;-76
2021/12/20 04:12:54;;;;;;;8.90;2.00;;;;;;;0.05;84.78;102695.59;5028376;28;20558;-76
2021/12/20 04:15:19;;;;;;;8.03;2.80;;;;;;;0.04;84.70;102690.41;5028936;28;20652;-76
2021/12/20 04:17:44;;;;;;;7.67;1.97;;;;;;;0.03;84.61;102694.59;5028196;28;20246;-76
2021/12/20 04:20:10;;;;;;;9.37;2.10;;;;;;;0.03;84.45;102693.69;5030071;28;20722;-77
2021/12/20 04:22:35;;;;;;;6.67;2.00;;;;;;;0.03;84.31;102692.81;5029534;28;20229;-77
2021/12/20 04:25:01;;;;;;;8.57;2.57;;;;;;;-0.01;83.88;102700.06;5028315;28;20191;-76
2021/12/20 04:27:26;;;;;;;7.43;2.43;;;;;;;-0.05;84.39;102699.66;5029725;28;20179;-77
2021/12/20 04:29:54;;;;;;;7.53;2.13;;;;;;;-0.06;83.80;102706.34;5028812;28;20210;-76
2021/12/20 04:32:19;;;;;;;5.80;1.87;;;;;;;-0.09;84.20;102698.50;5044721;28;20249;-76
2021/12/20 04:34:44;;;;;;;9.27;2.60;;;;;;;-0.09;84.69;102701.00;5028403;28;20289;-77
2021/12/20 04:37:10;;;;;;;7.77;2.63;;;;;;;-0.06;84.72;102687.81;5029391;28;20222;-76
2021/12/20 04:39:35;;;;;;;8.83;1.90;;;;;;;-0.06;84.88;102695.38;5027758;28;20202;-76
2021/12/20 04:42:00;;;;;;;6.67;2.40;;;;;;;-0.07;84.12;102703.66;5028303;28;20864;-76
2021/12/20 04:44:26;;;;;;;6.40;2.17;;;;;;;-0.10;83.99;102705.91;5027984;28;20190;-76
2021/12/20 04:46:52;;;;;;;6.70;2.10;;;;;;;-0.09;83.81;102705.19;5029206;28;20201;-76
2021/12/20 04:49:17;;;;;;;9.93;2.43;;;;;;;-0.13;84.29;102709.03;5028848;28;20268;-76
2021/12/20 04:51:43;;;;;;;6.30;2.37;;;;;;;-0.17;84.36;102712.00;5029498;28;20240;-77
2021/12/20 04:54:08;;;;;;;7.47;2.10;;;;;;;-0.16;83.84;102710.38;5028129;28;20225;-76
2021/12/20 04:56:33;;;;;;;5.10;1.90;;;;;;;-0.17;84.72;102714.50;5028553;28;20242;-76
2021/12/20 04:58:59;;;;;;;7.43;2.10;;;;;;;-0.18;83.71;102710.22;5031531;28;20240;-76
2021/12/20 05:01:24;;;;;;;5.77;2.17;;;;;;;-0.18;84.56;102704.34;5033629;28;20190;-76
2021/12/20 05:03:50;;;;;;;8.50;2.23;;;;;;;-0.10;84.34;102709.31;5032359;28;20182;-76
2021/12/20 05:06:15;;;;;;;6.57;1.83;;;;;;;-0.08;84.21;102710.31;5031563;28;20269;-76
2021/12/20 05:08:49;;;;;;;6.83;1.90;;;;;;;-0.04;84.48;102706.47;5033000;28;20289;-76
2021/12/20 05:11:14;;;;;;;8.20;2.20;;;;;;;-0.04;83.72;102714.03;5033229;28;20221;-76
2021/12/20 05:13:40;;;;;;;7.40;1.93;;;;;;;-0.10;84.03;102710.94;5033379;28;20194;-76
2021/12/20 05:16:05;;;;;;;9.40;2.30;;;;;;;-0.12;83.26;102720.00;5031703;28;20229;-76
2021/12/20 05:18:31;;;;;;;7.40;2.40;;;;;;;-0.17;84.28;102717.03;5032956;28;20221;-77
2021/12/20 05:20:56;;;;;;;7.63;1.77;;;;;;;-0.15;83.58;102719.69;5031189;28;20268;-76
2021/12/20 05:23:21;;;;;;;8.60;2.20;;;;;;;-0.16;83.83;102712.91;5031656;28;20189;-76
2021/12/20 05:25:47;;;;;;;5.37;2.10;;;;;;;-0.16;83.43;102707.88;5033120;28;20197;-76
2021/12/20 05:28:12;;;;;;;6.80;2.03;;;;;;;-0.13;83.52;102698.94;5047898;28;20662;-76
2021/12/20 05:30:38;;;;;;;10.50;1.87;;;;;;;-0.09;83.73;102707.69;5032621;28;20307;-77
2021/12/20 05:33:04;;;;;;;5.63;2.27;;;;;;;-0.09;83.32;102705.19;5032795;28;20190;-77
2021/12/20 05:35:29;;;;;;;7.77;2.30;;;;;;;-0.09;83.67;102720.28;5031413;28;20191;-77
2021/12/20 05:37:55;;;;;;;5.67;1.77;;;;;;;-0.15;83.67;102722.22;5032067;28;20709;-76
2021/12/20 05:40:20;;;;;;;5.73;1.90;;;;;;;-0.14;83.60;102727.38;5048023;28;20202;-76
2021/12/20 05:42:46;;;;;;;6.10;2.00;;;;;;;-0.13;83.19;102721.59;5047732;28;20969;-76
2021/12/20 05:45:13;;;;;;;9.90;1.80;;;;;;;-0.11;83.44;102724.28;5032778;28;20198;-76
2021/12/20 05:47:38;;;;;;;3.03;1.50;;;;;;;-0.11;83.52;102727.69;5032233;28;20190;-76
2021/12/20 05:50:06;;;;;;;6.27;2.30;;;;;;;-0.10;83.15;102743.66;5046588;28;20586;-76
2021/12/20 05:52:31;;;;;;;9.80;2.10;;;;;;;-0.10;83.28;102739.50;5032644;28;20698;-76
2021/12/20 05:54:56;;;;;;;7.17;2.10;;;;;;;-0.09;83.17;102731.22;5032368;28;20213;-76
2021/12/20 05:57:22;;;;;;;4.70;1.90;;;;;;;-0.09;82.82;102733.72;5032214;28;20225;-76
2021/12/20 05:59:47;;;;;;;5.70;2.40;;;;;;;-0.05;82.58;102734.88;5032226;28;20236;-75
2021/12/20 06:02:13;;;;;;;6.43;2.23;;;;;;;-0.07;83.21;102738.91;5032103;28;20187;-75
2021/12/20 06:04:38;;;;;;;7.27;1.90;;;;;;;-0.11;83.72;102737.75;5031023;28;20190;-76
2021/12/20 06:07:04;;;;;;;4.70;1.80;;;;;;;-0.16;83.34;102751.53;5032305;28;20572;-76
2021/12/20 06:09:29;;;;;;;6.33;1.90;;;;;;;-0.20;83.62;102749.50;5029607;28;20589;-76
2021/12/20 06:11:59;;;;;;;6.17;2.47;;;;;;;-0.19;83.25;102743.69;5047602;28;20228;-76
2021/12/20 06:14:27;;;;;;;8.23;2.50;;;;;;;-0.19;83.49;102748.72;5030874;28;20182;-76
2021/12/20 06:16:55;;;;;;;9.10;1.87;;;;;;;-0.16;83.44;102733.03;5032295;28;20360;-76
2021/12/20 06:19:20;;;;;;;8.60;2.17;;;;;;;-0.15;83.24;102734.78;5047038;28;20210;-77
2021/12/20 06:21:45;;;;;;;7.47;1.80;;;;;;;-0.12;83.67;102742.63;5030672;28;20571;-76
2021/12/20 06:24:10;;;;;;;7.07;2.00;;;;;;;-0.19;84.05;102747.84;5030927;28;20190;-76
2021/12/20 06:26:36;;;;;;;6.23;1.93;;;;;;;-0.24;84.10;102754.06;5032408;28;20258;-76
2021/12/20 06:29:01;;;;;;;6.70;2.43;;;;;;;-0.23;84.42;102758.41;5030871;28;20286;-76
2021/12/20 06:31:27;;;;;;;7.07;2.30;;;;;;;-0.23;83.92;102753.34;5032121;28;20273;-76
2021/12/20 06:33:52;;;;;;;6.37;2.23;;;;;;;-0.23;83.92;102758.41;5032045;28;20205;-76
2021/12/20 06:36:19;;;;;;;5.73;2.10;;;;;;;-0.20;84.10;102759.56;5030704;28;20198;-76
2021/12/20 06:38:47;;;;;;;9.20;2.30;;;;;;;-0.19;83.87;102747.84;5030877;28;20190;-77
2021/12/20 06:41:12;;;;;;;7.27;2.00;;;;;;;-0.18;83.79;102753.00;5030816;28;20214;-76
2021/12/20 06:43:38;;;;;;;7.27;2.10;;;;;;;-0.16;83.67;102753.16;5032009;28;20186;-76
2021/12/20 06:46:03;;;;;;;7.40;2.10;;;;;;;-0.20;83.12;102756.13;5032290;28;20527;-76
2021/12/20 06:48:28;;;;;;;8.30;2.23;;;;;;;-0.17;84.21;102759.81;5030223;28;20193;-76
2021/12/20 06:50:54;;;;;;;5.40;2.47;;;;;;;-0.17;84.17;102754.78;5030547;28;20207;-77
2021/12/20 06:53:19;;;;;;;6.10;2.53;;;;;;;-0.12;84.46;102753.59;5031564;28;20183;-76
2021/12/20 06:55:45;;;;;;;6.93;2.13;;;;;;;-0.15;84.24;102755.81;5031527;28;20564;-76
2021/12/20 06:58:10;;;;;;;6.03;2.13;;;;;;;-0.18;83.91;102760.56;5013258;28;20335;-76
2021/12/20 07:00:35;;;;;;;6.30;2.30;;;;;;;-0.23;83.95;102761.78;5031346;28;20253;-76
2021/12/20 07:03:01;;;;;;;6.70;2.43;;;;;;;-0.25;84.37;102763.28;5031300;28;20190;-76
2021/12/20 07:05:26;;;;;;;6.53;2.23;;;;;;;-0.26;83.83;102769.03;5030163;28;20341;-76
2021/12/20 07:07:52;;;;;;;7.60;2.07;;;;;;;-0.26;83.74;102768.16;5029528;28;20252;-76
2021/12/20 07:10:18;;;;;;;6.90;2.10;;;;;;;-0.27;84.12;102771.44;5031014;28;20240;-77
2021/12/20 07:12:43;;;;;;;11.20;2.30;;;;;;;-0.26;84.89;102774.06;5029901;28;20226;-76
2021/12/20 07:15:11;;;;;;;6.60;2.10;;;;;;;-0.21;84.15;102770.38;5029725;28;20193;-76
2021/12/20 07:17:37;;;;;;;7.93;2.17;;;;;;;-0.22;84.52;102770.22;5030870;28;20625;-76
2021/12/20 07:20:04;;;;;;;6.50;2.10;;;;;;;-0.26;84.07;102771.53;5029024;28;20309;-76
2021/12/20 07:22:29;;;;;;;9.37;2.10;;;;;;;-0.23;83.63;102779.38;5029918;28;20706;-76
2021/12/20 07:24:55;;;;;;;10.57;2.23;;;;;;;-0.26;83.48;102783.25;5013056;28;20179;-76
2021/12/20 07:27:20;;;;;;;6.90;2.30;;;;;;;-0.25;83.97;102787.53;5049242;28;20598;-77
2021/12/20 07:29:46;;;;;;;7.30;2.07;;;;;;;-0.28;84.32;102783.09;5066109;28;20239;-76
2021/12/20 07:32:14;;;;;;;7.87;2.40;;;;;;;-0.24;83.76;102784.28;5049149;28;20646;-77
2021/12/20 07:34:39;;;;;;;6.20;2.33;;;;;;;-0.20;83.99;102789.75;5049123;28;20196;-76
2021/12/20 07:37:06;;;;;;;4.13;1.97;;;;;;;-0.21;84.21;102793.03;5049830;28;20214;-76
2021/12/20 07:39:32;;;;;;;5.30;2.50;;;;;;;-0.23;83.99;102789.44;5066789;28;20213;-77
2021/12/20 07:41:57;;;;;;;9.63;2.17;;;;;;;-0.20;84.17;102797.31;5050106;28;20879;-76
2021/12/20 07:44:24;;;;;;;9.40;1.90;;;;;;;-0.21;84.19;102802.19;5067166;28;20193;-76
2021/12/20 07:46:50;;;;;;;10.23;2.50;;;;;;;-0.23;84.32;102788.59;5051656;28;20166;-74
2021/12/20 07:49:15;;;;;;;6.97;2.30;;;;;;;-0.23;84.48;102799.53;5049553;28;20214;-76
2021/12/20 07:51:41;;;;;;;8.33;3.47;;;;;;;-0.19;84.17;102799.06;5065776;28;20220;-75
2021/12/20 07:54:07;;;;;;;6.33;1.70;;;;;;;-0.17;84.09;102802.59;5066077;28;20193;-75
2021/12/20 07:56:32;;;;;;;8.53;2.30;;;;;;;-0.10;84.01;102794.88;5059439;28;20256;-75
2021/12/20 07:58:57;;;;;;;5.97;2.00;;;;;;;-0.08;84.33;102795.03;5050430;28;20178;-75
2021/12/20 08:01:23;;;;;;;6.60;1.97;;;;;;;0.00;83.94;102801.66;5050292;28;20725;-75
2021/12/20 08:03:48;;;;;;;8.63;2.23;;;;;;;0.05;83.48;102801.31;5048942;28;20618;-75
2021/12/20 08:06:13;;;;;;;5.77;2.20;;;;;;;0.08;83.99;102807.41;5050250;28;20217;-75
2021/12/20 08:08:40;;;;;;;7.97;2.47;;;;;;;0.14;83.05;102803.81;5048656;28;20197;-75
2021/12/20 08:11:06;;;;;;;7.37;2.33;;;;;;;0.17;83.42;102800.69;5049974;28;20212;-75
2021/12/20 08:13:32;;;;;;;6.23;2.23;;;;;;;0.22;82.39;102810.44;5049921;28;20194;-76
2021/12/20 08:15:58;;;;;;;9.40;2.27;;;;;;;0.27;82.48;102805.81;5066121;28;20468;-76
2021/12/20 08:18:23;;;;;;;6.23;2.30;;;;;;;0.28;83.18;102811.00;5051715;28;20229;-76
2021/12/20 08:20:49;;;;;;;6.27;2.20;;;;;;;0.29;82.63;102807.72;5051340;28;20702;-76
2021/12/20 08:23:14;;;;;;;4.60;1.90;;;;;;;0.32;82.45;102815.53;5065138;28;20189;-76
2021/12/20 08:25:39;;;;;;;18.67;3.33;;;;;;;0.33;82.90;102818.22;5065115;28;20185;-76
2021/12/20 08:28:06;;;;;;;12.87;2.33;;;;;;;0.35;83.58;102818.34;5065062;28;20213;-76
2021/12/20 08:30:31;;;;;;;8.03;2.43;;;;;;;0.40;83.11;102813.75;5064756;28;20605;-76
2021/12/20 08:32:57;;;;;;;6.93;2.03;;;;;;;0.46;82.28;102814.31;5047736;28;20181;-75
2021/12/20 08:35:22;;;;;;;6.10;2.20;;;;;;;0.46;82.11;102816.81;5064872;28;20788;-76
2021/12/20 08:37:47;;;;;;;6.67;2.30;;;;;;;0.52;82.77;102819.13;5049480;28;20664;-76
2021/12/20 08:40:15;;;;;;;7.80;2.30;;;;;;;0.59;81.78;102817.19;5049326;28;20213;-76
2021/12/20 08:42:42;;;;;;;10.60;2.33;;;;;;;0.61;82.44;102815.69;5049575;28;20658;-76
2021/12/20 08:45:10;;;;;;;9.13;2.43;;;;;;;0.62;82.87;102819.97;5065221;28;20591;-76
2021/12/20 08:47:35;;;;;;;9.03;2.23;;;;;;;0.64;83.08;102821.00;5049388;28;20245;-75
2021/12/20 08:50:03;;;;;;;8.00;2.33;;;;;;;0.67;82.67;102827.19;5032022;28;20736;-75
2021/12/20 08:52:29;;;;;;;5.50;2.00;;;;;;;0.68;82.63;102830.63;5049962;28;20185;-75
2021/12/20 08:54:54;;;;;;;5.97;2.00;;;;;;;0.69;82.45;102837.44;5048496;28;20185;-75
2021/12/20 08:57:19;;;;;;;17.63;3.50;;;;;;;0.71;82.66;102833.41;5049993;28;20694;-76
2021/12/20 08:59:45;;;;;;;7.73;2.20;;;;;;;0.79;82.92;102834.97;5049779;28;20220;-75
2021/12/20 09:02:11;;;;;;;7.60;2.10;;;;;;;0.83;82.13;102837.03;5064935;28;20187;-76
2021/12/20 09:04:37;;;;;;;11.13;2.77;;;;;;;0.86;81.45;102835.66;5064857;28;20197;-75
2021/12/20 09:07:03;;;;;;;6.07;2.17;;;;;;;0.93;82.28;102837.09;5064821;28;20268;-75
2021/12/20 09:09:29;;;;;;;7.77;2.27;;;;;;;0.97;81.52;102845.09;5049171;28;20281;-75
2021/12/20 09:11:55;;;;;;;9.50;2.30;;;;;;;0.99;81.72;102845.19;5049374;28;20206;-75
2021/12/20 09:14:20;;;;;;;6.30;2.00;;;;;;;1.05;81.65;102845.78;5049568;28;20193;-75
2021/12/20 09:16:45;;;;;;;10.23;2.50;;;;;;;1.11;81.62;102843.78;5049283;28;20580;-75
2021/12/20 09:19:11;;;;;;;6.33;2.13;;;;;;;1.16;80.99;102842.53;5047566;28;20210;-75
2021/12/20 09:21:36;;;;;;;8.40;2.30;;;;;;;1.21;81.69;102846.34;5049373;28;20178;-75
2021/12/20 09:24:04;;;;;;;9.00;2.40;;;;;;;1.24;81.49;102847.50;5064569;28;20194;-75
2021/12/20 09:26:29;;;;;;;6.40;2.20;;;;;;;1.32;80.45;102854.13;5049455;28;20745;-75
2021/12/20 09:28:55;;;;;;;6.87;2.10;;;;;;;1.36;81.13;102852.75;5048897;28;20186;-76
2021/12/20 09:31:20;;;;;;;9.87;2.70;;;;;;;1.39;80.90;102858.06;5047465;28;20190;-75
2021/12/20 09:33:45;;;;;;;5.57;2.03;;;;;;;1.46;80.18;102845.25;5049245;28;20185;-75
2021/12/20 09:36:11;;;;;;;6.43;2.03;;;;;;;1.51;81.07;102854.97;5048184;28;20678;-76
2021/12/20 09:38:36;;;;;;;9.30;2.27;;;;;;;1.56;81.00;102843.63;5064520;28;20711;-76
2021/12/20 09:41:15;;;;;;;8.13;2.20;;;;;;;1.61;80.16;102846.59;5064726;28;20229;-76
2021/12/20 09:43:42;;;;;;;6.00;2.37;;;;;;;1.69;80.51;102848.13;5051655;28;20170;-75
2021/12/20 09:46:08;;;;;;;4.93;2.20;;;;;;;1.74;80.90;102839.31;5051814;28;20266;-75
2021/12/20 09:48:36;;;;;;;5.73;2.67;;;;;;;1.86;80.74;102841.25;5051623;28;20189;-76
2021/12/20 09:51:04;;;;;;;9.10;2.67;;;;;;;2.02;80.21;102840.94;5049616;28;20217;-75
2021/12/20 09:53:30;;;;;;;6.30;2.23;;;;;;;2.21;79.54;102837.53;5068098;28;20194;-75
2021/12/20 09:55:57;;;;;;;9.00;2.20;;;;;;;2.40;78.06;102830.75;5052905;28;20186;-75
2021/12/20 09:58:24;;;;;;;5.90;2.10;;;;;;;2.58;77.65;102838.97;5052642;28;20205;-76
2021/12/20 10:00:49;;;;;;;6.73;2.07;;;;;;;2.84;77.17;102835.31;5050797;28;20216;-76
2021/12/20 10:03:20;;;;;;;9.40;2.20;;;;;;;3.10;76.46;102835.78;5050825;28;20186;-75
2021/12/20 10:05:46;;;;;;;4.23;2.17;;;;;;;3.38;74.66;102836.34;5034867;28;20541;-76
2021/12/20 10:08:16;;;;;;;5.70;2.23;;;;;;;3.70;74.47;102834.69;5018443;28;20210;-74
2021/12/20 10:10:48;;;;;;;6.40;2.10;;;;;;;4.01;73.81;102839.72;5035889;28;20225;-75
2021/12/20 10:13:20;;;;;;;7.10;2.30;;;;;;;4.31;71.43;102842.09;5035722;28;20224;-77
2021/12/20 10:15:46;;;;;;;5.60;2.53;;;;;;;4.61;70.97;102834.25;5034325;28;20252;-76
2021/12/20 10:18:13;;;;;;;7.03;2.40;;;;;;;4.89;69.95;102839.72;5032499;28;20226;-77
2021/12/20 10:20:38;;;;;;;6.87;2.10;;;;;;;5.23;69.32;102837.22;5030752;28;20230;-77
2021/12/20 10:23:21;;;;;;;4.73;2.00;;;;;;;5.51;67.42;102843.53;5032455;28;20189;-77
2021/12/20 10:25:49;;;;;;;5.17;2.00;;;;;;;6.07;67.12;102848.44;5051413;28;20193;-77
2021/12/20 10:28:23;;;;;;;8.47;2.23;;;;;;;6.28;65.18;102847.38;5047454;28;20197;-75
2021/12/20 10:30:52;;;;;;;8.03;2.50;;;;;;;6.67;63.80;102844.06;5031487;28;20225;-76
2021/12/20 10:33:22;;;;;;;14.90;3.20;;;;;;;9.96;53.62;102829.47;5030882;28;20186;-77
2021/12/20 10:35:55;;;;;;;8.40;2.13;;;;;;;11.70;48.43;102834.19;5048968;28;20190;-77
2021/12/20 10:38:31;;;;;;;5.13;2.00;;;;;;;11.53;48.04;102832.47;5017452;28;20246;-77
2021/12/20 10:41:00;;;;;;;6.47;2.27;;;;;;;9.83;52.77;102834.72;5029116;28;20268;-77
2021/12/20 10:43:33;;;;;;;6.40;2.90;;;;;;;9.52;54.43;102834.72;5033661;28;20237;-74
2021/12/20 10:45:58;;;;;;;4.93;2.00;;;;;;;9.44;53.58;102838.53;5031271;28;20217;-75
2021/12/20 10:48:30;;;;;;;4.93;1.97;;;;;;;9.62;54.44;102852.34;5029667;28;20566;-75
2021/12/20 10:50:56;;;;;;;5.90;2.10;;;;;;;9.77;53.90;102840.38;5031048;28;20206;-75
2021/12/20 10:53:26;;;;;;;4.70;2.10;;;;;;;9.76;54.78;102843.75;5031456;28;20194;-75
2021/12/20 10:55:54;;;;;;;6.13;2.20;;;;;;;10.14;53.35;102839.03;5030530;28;20908;-75
2021/12/20 10:58:28;;;;;;;7.23;2.80;;;;;;;10.14;52.46;102840.75;5046133;28;20234;-76
2021/12/20 11:01:19;;;;;;;3.97;2.10;;;;;;;10.34;52.21;102843.53;5031031;28;20205;-75
2021/12/20 11:03:58;;;;;;;6.57;2.60;;;;;;;10.73;50.86;102837.91;5031431;28;20546;-74
2021/12/20 11:06:26;;;;;;;5.10;2.40;;;;;;;11.75;48.10;102831.84;5030036;28;20194;-75
2021/12/20 11:09:05;;;;;;;5.03;2.60;;;;;;;13.58;44.57;102826.13;5030625;28;20706;-74
2021/12/20 11:11:39;;;;;;;3.57;2.27;;;;;;;14.20;42.06;102814.84;5046280;28;20324;-76
2021/12/20 11:14:07;;;;;;;5.87;2.77;;;;;;;14.22;41.70;102818.31;5046121;28;20185;-75
2021/12/20 11:16:39;;;;;;;5.33;2.20;;;;;;;14.58;41.41;102816.16;5045477;28;20194;-75
2021/12/20 11:19:19;;;;;;;7.57;2.63;;;;;;;14.61;41.18;102809.44;5029173;28;20194;-74
2021/12/20 11:21:45;;;;;;;4.97;2.50;;;;;;;15.02;41.47;102808.25;5030937;28;20276;-74
2021/12/20 11:24:17;;;;;;;6.17;3.00;;;;;;;15.29;40.46;102807.41;5030877;28;20186;-74
2021/12/20 11:26:43;;;;;;;4.20;2.40;;;;;;;14.69;40.43;102817.44;5030611;28;20210;-75
2021/12/20 11:29:09;;;;;;;4.83;2.23;;;;;;;15.32;39.25;102815.28;5028987;28;20183;-73
2021/12/20 11:31:37;;;;;;;5.33;2.50;;;;;;;15.39;40.09;102813.78;5029396;28;20187;-76
2021/12/20 11:34:02;;;;;;;3.90;2.57;;;;;;;14.64;40.43;102813.81;5030329;28;20201;-75
2021/12/20 11:36:28;;;;;;;5.63;2.77;;;;;;;14.78;40.95;102810.00;5030387;28;20190;-75
2021/12/20 11:38:53;;;;;;;7.40;2.80;;;;;;;15.40;40.17;102807.78;5029974;28;20210;-75